Time;durP1;ratioP1;P1;durP2;ratioP2;P2;SDS_P1;SDS_P2;PMS_P1;PMS_P2;Temp;Humidity;BMP_temperature;BMP_pressure;BME280_temperature;BME280_humidity;BME280_pressure;Samples;Min_cycle;Max_cycle;Signal;HPM_P1;HPM_P2
2021/12/19 00:00:19;;;;;;;49.67;23.13;;;6.10;99.90;;;;;;5074406;28;20219;-74
2021/12/19 00:10:25;;;;;;;48.57;21.63;;;6.10;99.90;;;;;;5074906;28;20221;-73
2021/12/19 00:12:52;;;;;;;49.67;23.43;;;6.10;99.90;;;;;;5074555;28;20168;-74
2021/12/19 00:15:18;;;;;;;52.50;23.43;;;6.00;99.90;;;;;;5074305;28;20168;-73
2021/12/19 00:17:43;;;;;;;49.17;21.13;;;6.10;99.90;;;;;;5072830;28;20234;-73
2021/12/19 00:20:09;;;;;;;49.67;21.93;;;6.10;99.90;;;;;;5074234;28;20200;-73
2021/12/19 00:22:35;;;;;;;47.60;21.10;;;6.10;99.90;;;;;;5074399;28;20173;-74
2021/12/19 00:25:01;;;;;;;50.27;21.70;;;6.00;99.90;;;;;;5073981;28;20709;-74
2021/12/19 00:27:27;;;;;;;46.43;21.00;;;6.00;99.90;;;;;;5074171;28;20179;-74
2021/12/19 00:29:52;;;;;;;47.57;20.60;;;6.10;99.90;;;;;;5073873;28;20283;-74
2021/12/19 00:32:19;;;;;;;55.30;21.80;;;6.10;99.90;;;;;;5073690;28;20173;-73
2021/12/19 00:34:44;;;;;;;55.80;22.17;;;6.10;99.90;;;;;;5074149;28;20176;-73
2021/12/19 00:37:11;;;;;;;57.20;23.33;;;6.10;99.90;;;;;;5073919;28;20164;-74
2021/12/19 00:39:37;;;;;;;56.47;23.77;;;6.00;99.90;;;;;;5074027;28;20216;-72
2021/12/19 00:42:07;;;;;;;57.50;23.40;;;6.00;99.90;;;;;;5074061;28;20248;-74
2021/12/19 00:44:35;;;;;;;56.43;24.80;;;6.10;99.90;;;;;;5073744;28;20192;-73
2021/12/19 00:47:07;;;;;;;54.47;23.83;;;6.20;99.90;;;;;;5073708;28;20608;-74
2021/12/19 00:49:34;;;;;;;48.57;21.93;;;6.20;99.90;;;;;;5073813;28;20176;-74
2021/12/19 00:52:01;;;;;;;50.17;23.00;;;6.30;99.90;;;;;;5073725;28;20194;-74
2021/12/19 00:54:27;;;;;;;42.50;21.10;;;6.30;99.90;;;;;;5073762;28;20176;-73
2021/12/19 00:56:53;;;;;;;45.77;22.03;;;6.30;99.90;;;;;;5073554;28;20237;-73
2021/12/19 00:59:19;;;;;;;44.87;20.93;;;6.20;99.90;;;;;;5073719;28;20220;-73
2021/12/19 01:01:46;;;;;;;51.00;22.30;;;6.20;99.90;;;;;;5073404;28;20184;-73
2021/12/19 01:04:15;;;;;;;46.07;20.57;;;6.20;99.90;;;;;;5073316;28;20177;-73
2021/12/19 01:06:42;;;;;;;48.47;21.30;;;6.20;99.90;;;;;;5072591;28;20630;-73
2021/12/19 01:09:08;;;;;;;51.10;22.20;;;6.20;99.90;;;;;;5073478;28;20176;-74
2021/12/19 01:11:35;;;;;;;45.60;20.97;;;6.30;99.90;;;;;;5073320;28;20202;-74
2021/12/19 01:14:01;;;;;;;48.37;21.83;;;6.40;99.90;;;;;;5073257;28;20259;-73
2021/12/19 01:16:27;;;;;;;49.77;20.87;;;6.50;99.90;;;;;;5072017;28;20172;-73
2021/12/19 01:18:53;;;;;;;44.77;19.37;;;6.50;99.90;;;;;;5073262;28;20655;-73
2021/12/19 01:21:18;;;;;;;48.23;21.17;;;6.50;99.90;;;;;;5073282;28;20651;-74
2021/12/19 01:23:44;;;;;;;57.37;25.37;;;6.60;99.90;;;;;;5072893;28;20623;-73
2021/12/19 01:26:10;;;;;;;49.60;21.40;;;6.60;99.90;;;;;;5072004;28;20179;-74
2021/12/19 01:28:36;;;;;;;43.70;21.10;;;6.50;99.90;;;;;;5072766;28;20187;-73
2021/12/19 01:31:03;;;;;;;42.37;20.70;;;6.40;99.90;;;;;;5073296;28;20173;-74
2021/12/19 01:33:28;;;;;;;37.73;18.23;;;6.50;99.90;;;;;;5073018;28;20624;-73
2021/12/19 01:35:54;;;;;;;43.43;19.00;;;6.50;99.90;;;;;;5073105;28;20252;-73
2021/12/19 01:38:20;;;;;;;39.03;19.37;;;6.40;99.90;;;;;;5073004;28;20184;-74
2021/12/19 01:40:45;;;;;;;37.43;18.67;;;6.50;99.90;;;;;;5073120;28;20219;-74
2021/12/19 01:43:11;;;;;;;41.63;19.07;;;6.60;99.90;;;;;;5072666;28;20683;-73
2021/12/19 01:45:39;;;;;;;39.40;19.10;;;6.50;99.90;;;;;;5073079;28;20183;-74
2021/12/19 01:48:11;;;;;;;40.37;19.47;;;6.60;99.90;;;;;;5073058;28;20169;-74
2021/12/19 01:50:37;;;;;;;35.73;17.00;;;6.60;99.90;;;;;;5071552;28;20180;-73
2021/12/19 01:53:05;;;;;;;29.97;15.60;;;6.50;99.90;;;;;;5072894;28;20686;-74
2021/12/19 01:55:31;;;;;;;33.77;16.80;;;6.40;99.90;;;;;;5072719;28;20179;-73
2021/12/19 01:57:57;;;;;;;29.63;15.23;;;6.40;99.90;;;;;;5071301;28;20176;-73
2021/12/19 02:00:27;;;;;;;26.47;14.33;;;6.40;99.90;;;;;;5072812;28;20227;-74
2021/12/19 02:02:54;;;;;;;32.10;16.17;;;6.40;99.90;;;;;;5075705;28;20161;-73
2021/12/19 02:05:21;;;;;;;31.13;16.00;;;6.50;99.90;;;;;;5077023;28;20165;-73
2021/12/19 02:07:48;;;;;;;32.27;15.37;;;6.50;99.90;;;;;;5077031;28;20238;-73
2021/12/19 02:10:18;;;;;;;28.80;15.27;;;6.60;99.90;;;;;;5076877;28;20160;-73
2021/12/19 02:12:46;;;;;;;30.73;15.57;;;6.70;99.90;;;;;;5076267;28;20191;-73
2021/12/19 02:15:16;;;;;;;29.20;15.00;;;6.70;99.90;;;;;;5075378;28;20256;-73
2021/12/19 02:17:42;;;;;;;24.37;13.57;;;6.60;99.90;;;;;;5077289;28;20168;-74
2021/12/19 02:20:10;;;;;;;27.43;14.67;;;6.50;99.90;;;;;;5076500;28;20215;-74
2021/12/19 02:22:36;;;;;;;30.93;15.47;;;6.40;99.90;;;;;;5076615;28;20160;-73
2021/12/19 02:25:03;;;;;;;31.73;15.77;;;6.50;99.90;;;;;;5076336;28;20220;-73
2021/12/19 02:27:29;;;;;;;27.63;15.03;;;6.70;99.90;;;;;;5075929;28;20211;-73
2021/12/19 02:29:56;;;;;;;29.13;15.30;;;6.80;99.90;;;;;;5075208;28;20628;-73
2021/12/19 02:32:23;;;;;;;26.50;14.03;;;6.80;99.90;;;;;;5076476;28;20247;-74
2021/12/19 02:34:50;;;;;;;32.53;15.50;;;6.90;99.90;;;;;;5076353;28;20270;-74
2021/12/19 02:50:43;;;;;;;30.70;15.23;;;6.90;99.90;;;;;;5076126;28;20222;-73
2021/12/19 02:53:09;;;;;;;32.03;15.53;;;6.90;99.90;;;;;;5075999;28;20183;-73
2021/12/19 02:55:35;;;;;;;30.27;15.30;;;6.90;99.90;;;;;;5075962;28;20602;-73
2021/12/19 02:58:00;;;;;;;34.00;16.50;;;7.10;99.90;;;;;;5075691;28;20230;-73
2021/12/19 03:00:26;;;;;;;30.87;15.27;;;7.10;99.90;;;;;;5075980;28;20270;-73
2021/12/19 03:02:52;;;;;;;33.90;16.80;;;7.30;99.90;;;;;;5075780;28;20286;-74
2021/12/19 03:05:18;;;;;;;36.03;17.43;;;7.30;99.90;;;;;;5075818;28;20255;-73
2021/12/19 03:07:44;;;;;;;31.00;15.60;;;7.40;99.90;;;;;;5075712;28;20657;-73
2021/12/19 03:18:43;;;;;;;29.67;15.20;;;6.80;99.90;;;;;;5033964;28;20189;-74
2021/12/19 03:21:13;;;;;;;28.70;15.73;;;7.00;99.90;;;;;;5033520;28;20182;-73
2021/12/19 03:23:39;;;;;;;31.53;15.80;;;7.10;99.90;;;;;;5033032;28;20273;-73
2021/12/19 03:26:05;;;;;;;31.40;16.00;;;7.20;99.90;;;;;;5033166;28;20381;-72
2021/12/19 03:28:31;;;;;;;28.87;14.93;;;7.40;99.90;;;;;;5016871;28;20185;-73
2021/12/19 03:30:57;;;;;;;33.23;17.00;;;7.30;99.90;;;;;;5033373;28;20186;-72
2021/12/19 03:33:23;;;;;;;31.63;16.30;;;7.30;99.90;;;;;;5033363;28;20178;-73
2021/12/19 03:35:49;;;;;;;33.93;16.87;;;7.40;99.90;;;;;;5033267;28;20515;-73
2021/12/19 03:38:16;;;;;;;31.93;16.73;;;7.50;99.90;;;;;;5032813;28;20182;-73
2021/12/19 03:40:52;;;;;;;31.77;15.07;;;7.40;99.90;;;;;;5032778;28;20214;-73
2021/12/19 03:43:20;;;;;;;34.03;18.20;;;7.40;99.90;;;;;;5033169;28;20189;-73
2021/12/19 03:45:47;;;;;;;32.90;16.80;;;7.40;99.90;;;;;;5033009;28;20174;-73
2021/12/19 03:48:15;;;;;;;29.17;14.37;;;7.40;99.90;;;;;;5032959;28;20235;-73
2021/12/19 03:50:48;;;;;;;28.70;14.53;;;7.40;99.90;;;;;;5050537;28;20548;-73
2021/12/19 03:53:17;;;;;;;32.57;15.07;;;7.40;99.90;;;;;;5054827;28;20177;-73
2021/12/19 03:55:43;;;;;;;30.83;14.83;;;7.50;99.90;;;;;;5054429;28;20177;-73
2021/12/19 03:58:11;;;;;;;26.63;13.87;;;7.50;99.90;;;;;;5054850;28;20650;-73
2021/12/19 04:00:37;;;;;;;27.60;13.67;;;7.50;99.90;;;;;;5053432;28;20707;-73
2021/12/19 04:03:06;;;;;;;27.37;13.17;;;7.50;99.90;;;;;;5053464;28;20576;-73
2021/12/19 04:05:32;;;;;;;26.43;12.10;;;7.50;99.90;;;;;;5054292;28;20181;-73
2021/12/19 04:07:58;;;;;;;29.73;12.63;;;7.30;99.90;;;;;;5054719;28;20183;-73
2021/12/19 04:10:27;;;;;;;25.30;11.77;;;7.30;99.90;;;;;;5054273;28;20636;-73
2021/12/19 04:12:54;;;;;;;26.87;12.97;;;7.20;99.90;;;;;;5054750;28;20219;-72
2021/12/19 04:15:19;;;;;;;31.67;14.40;;;7.20;99.90;;;;;;5054380;28;20209;-73
2021/12/19 04:17:45;;;;;;;22.23;11.67;;;7.30;99.90;;;;;;5054767;28;20204;-72
2021/12/19 04:20:11;;;;;;;26.90;13.03;;;7.30;99.90;;;;;;5053785;28;20836;-73
2021/12/19 04:22:37;;;;;;;27.57;12.43;;;7.40;99.90;;;;;;5054005;28;20177;-73
2021/12/19 04:25:04;;;;;;;27.37;12.73;;;7.30;99.90;;;;;;5066287;28;20220;-72
2021/12/19 04:27:30;;;;;;;27.10;13.40;;;7.40;99.90;;;;;;5074414;28;20200;-73
2021/12/19 04:29:55;;;;;;;30.13;14.57;;;7.40;99.90;;;;;;5072886;28;20210;-73
2021/12/19 04:32:27;;;;;;;35.23;15.47;;;7.50;99.90;;;;;;5073586;28;20591;-73
2021/12/19 04:34:53;;;;;;;33.77;15.60;;;7.70;99.90;;;;;;5073658;28;20192;-72
2021/12/19 04:40:38;;;;;;;30.73;14.30;;;7.80;99.90;;;;;;5031944;28;20217;-73
2021/12/19 04:54:01;;;;;;;24.53;12.27;;;7.50;99.90;;;;;;5031004;28;20642;-72
2021/12/19 04:56:49;;;;;;;26.70;12.80;;;7.60;99.90;;;;;;5031810;28;20229;-72
2021/12/19 05:14:23;;;;;;;24.53;10.87;;;7.80;99.90;;;;;;5030976;28;20528;-73
2021/12/19 05:16:50;;;;;;;21.60;10.60;;;7.90;99.90;;;;;;5055258;28;20196;-73
2021/12/19 05:21:43;;;;;;;22.40;11.17;;;7.70;99.90;;;;;;5072637;28;20165;-71
2021/12/19 05:27:04;;;;;;;22.17;10.80;;;7.40;99.90;;;;;;5031413;28;20178;-73
2021/12/19 05:29:32;;;;;;;23.87;11.37;;;7.30;99.90;;;;;;5030959;28;20227;-72
2021/12/19 05:31:58;;;;;;;23.07;11.30;;;7.10;99.90;;;;;;5030991;28;20181;-72
2021/12/19 05:34:24;;;;;;;25.00;11.57;;;7.10;99.90;;;;;;5030597;28;20182;-73
2021/12/19 05:45:19;;;;;;;28.80;12.17;;;7.50;99.90;;;;;;5030975;28;20184;-72
2021/12/19 05:47:47;;;;;;;25.60;12.53;;;7.60;99.90;;;;;;5030630;28;20236;-73
2021/12/19 05:50:14;;;;;;;27.50;13.20;;;7.60;99.90;;;;;;5030167;28;20186;-72
2021/12/19 05:52:40;;;;;;;31.80;13.73;;;7.70;99.90;;;;;;5030648;28;20197;-72
2021/12/19 05:55:07;;;;;;;30.53;13.67;;;7.80;99.90;;;;;;5030693;28;20649;-72
2021/12/19 05:57:34;;;;;;;30.07;14.20;;;7.80;99.90;;;;;;5030442;28;20185;-73
2021/12/19 06:00:00;;;;;;;30.50;14.37;;;7.80;99.90;;;;;;5030379;28;20225;-73
2021/12/19 06:02:26;;;;;;;30.97;14.60;;;7.80;99.90;;;;;;5033779;28;20185;-73
2021/12/19 06:04:52;;;;;;;34.80;15.67;;;7.90;99.90;;;;;;5072204;28;20628;-73
2021/12/19 06:07:18;;;;;;;32.13;15.07;;;7.90;99.90;;;;;;5072772;28;20172;-73
2021/12/19 06:09:43;;;;;;;33.60;14.93;;;8.00;99.90;;;;;;5072514;28;20176;-72
2021/12/19 06:12:09;;;;;;;36.87;16.10;;;7.90;99.90;;;;;;5072255;28;20628;-73
2021/12/19 06:14:35;;;;;;;39.40;17.17;;;7.90;99.90;;;;;;5072295;28;20639;-72
2021/12/19 06:17:02;;;;;;;33.37;16.20;;;7.90;99.90;;;;;;5072663;28;20181;-72
2021/12/19 06:19:28;;;;;;;38.77;17.50;;;7.90;99.90;;;;;;5072213;28;20695;-72
2021/12/19 06:21:54;;;;;;;37.90;17.47;;;7.80;99.90;;;;;;5071091;28;20200;-73
2021/12/19 06:24:20;;;;;;;41.67;18.60;;;7.80;99.90;;;;;;5072137;28;20235;-74
2021/12/19 06:26:45;;;;;;;43.90;18.97;;;7.80;99.90;;;;;;5072900;28;20299;-73
2021/12/19 06:29:11;;;;;;;41.10;18.47;;;7.90;99.90;;;;;;5072031;28;20200;-73
2021/12/19 06:31:37;;;;;;;48.27;19.97;;;8.00;99.90;;;;;;5072178;28;20188;-74
2021/12/19 06:34:03;;;;;;;44.23;19.87;;;7.90;99.90;;;;;;5072090;28;20364;-73
2021/12/19 06:36:28;;;;;;;36.40;16.43;;;8.00;99.90;;;;;;5072187;28;20173;-73
2021/12/19 06:38:55;;;;;;;32.23;15.10;;;7.90;99.90;;;;;;5072204;28;20287;-73
2021/12/19 06:41:22;;;;;;;42.40;18.40;;;7.80;99.90;;;;;;5072267;28;20675;-73
2021/12/19 06:43:48;;;;;;;43.90;18.37;;;7.90;99.90;;;;;;5072156;28;20280;-73
2021/12/19 06:46:14;;;;;;;46.27;18.87;;;8.00;99.90;;;;;;5071669;28;20204;-73
2021/12/19 06:48:40;;;;;;;44.30;20.57;;;8.00;99.90;;;;;;5073456;28;20183;-73
2021/12/19 06:51:06;;;;;;;44.03;19.87;;;8.00;99.90;;;;;;5075969;28;20164;-73
2021/12/19 06:53:31;;;;;;;47.90;19.83;;;8.10;99.90;;;;;;5075779;28;20207;-73
2021/12/19 06:55:58;;;;;;;52.43;22.23;;;8.10;99.90;;;;;;5075628;28;20215;-73
2021/12/19 06:58:24;;;;;;;45.97;19.83;;;8.10;99.90;;;;;;5075600;28;20738;-73
2021/12/19 07:00:50;;;;;;;49.70;20.30;;;8.20;99.90;;;;;;5075792;28;20319;-73
2021/12/19 07:03:16;;;;;;;56.03;21.67;;;8.20;99.90;;;;;;5075528;28;20533;-73
2021/12/19 07:05:42;;;;;;;49.57;21.10;;;8.20;99.90;;;;;;5075513;28;20169;-73
2021/12/19 07:08:08;;;;;;;48.10;21.20;;;8.20;99.90;;;;;;5075713;28;20206;-73
2021/12/19 07:10:34;;;;;;;58.43;22.50;;;8.30;99.90;;;;;;5075418;28;20172;-73
2021/12/19 07:13:00;;;;;;;54.23;21.80;;;8.30;99.90;;;;;;5075207;28;20180;-73
2021/12/19 07:15:27;;;;;;;57.43;21.50;;;8.30;99.90;;;;;;5074932;28;20724;-73
2021/12/19 07:17:53;;;;;;;55.77;21.57;;;8.40;99.90;;;;;;5075269;28;20177;-73
2021/12/19 07:20:19;;;;;;;59.30;21.43;;;8.40;99.90;;;;;;5075309;28;20208;-73
2021/12/19 07:22:45;;;;;;;55.77;20.83;;;8.40;99.90;;;;;;5075137;28;20176;-73
2021/12/19 07:25:10;;;;;;;50.57;20.13;;;8.40;99.90;;;;;;5074687;28;20259;-73
2021/12/19 07:27:36;;;;;;;51.43;19.00;;;8.40;99.90;;;;;;5074734;28;20648;-74
2021/12/19 07:30:04;;;;;;;53.03;19.07;;;8.40;99.90;;;;;;5075217;28;20244;-73
2021/12/19 07:32:31;;;;;;;48.37;19.40;;;8.30;99.90;;;;;;5074782;28;20184;-73
2021/12/19 07:34:57;;;;;;;52.40;19.33;;;8.30;99.90;;;;;;5075378;28;20207;-73
2021/12/19 07:37:22;;;;;;;52.77;19.53;;;8.30;99.90;;;;;;5074363;28;20172;-73
2021/12/19 07:39:55;;;;;;;60.43;20.17;;;8.30;99.90;;;;;;5074494;28;20573;-73
2021/12/19 07:42:20;;;;;;;54.87;20.03;;;8.30;99.90;;;;;;5073962;28;20592;-73
2021/12/19 07:44:46;;;;;;;51.63;18.83;;;8.30;99.90;;;;;;5074693;28;20247;-73
2021/12/19 07:47:12;;;;;;;55.13;20.57;;;8.30;99.90;;;;;;5074790;28;20526;-73
2021/12/19 07:49:38;;;;;;;57.47;20.03;;;8.40;99.90;;;;;;5074482;28;20705;-73
2021/12/19 07:52:04;;;;;;;62.37;21.07;;;8.30;99.90;;;;;;5073421;28;20168;-72
2021/12/19 07:54:29;;;;;;;58.73;20.03;;;8.40;99.90;;;;;;5074228;28;20172;-73
2021/12/19 07:56:55;;;;;;;60.90;19.27;;;8.30;99.90;;;;;;5074920;28;20185;-73
2021/12/19 07:59:21;;;;;;;61.70;19.07;;;8.30;99.90;;;;;;5072746;28;20360;-73
2021/12/19 08:01:48;;;;;;;55.57;19.13;;;8.20;99.90;;;;;;5073939;28;20169;-73
2021/12/19 08:04:14;;;;;;;51.10;17.80;;;8.10;99.90;;;;;;5074604;28;20223;-73
2021/12/19 08:06:40;;;;;;;50.90;16.97;;;8.10;99.90;;;;;;5074431;28;20173;-73
2021/12/19 08:09:10;;;;;;;47.57;15.97;;;8.00;99.90;;;;;;5074215;28;20603;-73
2021/12/19 08:11:40;;;;;;;45.27;16.13;;;7.90;99.90;;;;;;5074338;28;20257;-73
2021/12/19 08:14:08;;;;;;;45.00;16.40;;;7.80;99.90;;;;;;5074313;28;20169;-73
2021/12/19 08:16:34;;;;;;;47.97;16.23;;;7.70;99.90;;;;;;5074077;28;20183;-73
2021/12/19 08:19:00;;;;;;;48.77;17.50;;;7.80;99.90;;;;;;5073871;28;20185;-73
2021/12/19 08:21:25;;;;;;;51.00;17.50;;;7.80;99.90;;;;;;5072722;28;20181;-73
2021/12/19 08:23:51;;;;;;;52.97;18.07;;;7.80;99.90;;;;;;5072451;28;20173;-73
2021/12/19 08:26:17;;;;;;;45.37;17.23;;;7.80;99.90;;;;;;5073860;28;20177;-72
2021/12/19 08:28:43;;;;;;;70.33;17.27;;;7.80;99.90;;;;;;5073495;28;20168;-73
2021/12/19 08:31:09;;;;;;;48.73;17.03;;;7.80;99.90;;;;;;5056013;28;20173;-73
2021/12/19 08:33:34;;;;;;;40.50;15.43;;;7.70;99.90;;;;;;5074185;28;20168;-73
2021/12/19 08:36:01;;;;;;;36.37;14.00;;;7.80;99.90;;;;;;5073615;28;20173;-72
2021/12/19 08:38:27;;;;;;;32.40;11.53;;;7.80;99.90;;;;;;5073705;28;20168;-72
2021/12/19 08:40:53;;;;;;;31.07;11.70;;;7.70;99.90;;;;;;5073664;28;20227;-72
2021/12/19 08:43:19;;;;;;;28.67;10.10;;;7.70;99.90;;;;;;5073419;28;20215;-73
2021/12/19 08:45:46;;;;;;;27.23;10.87;;;7.60;99.90;;;;;;5072724;28;20261;-73
2021/12/19 08:48:12;;;;;;;30.87;11.10;;;7.70;99.90;;;;;;5073368;28;20173;-73
2021/12/19 08:50:38;;;;;;;30.70;11.07;;;7.60;99.90;;;;;;5073378;28;20696;-74
2021/12/19 08:53:04;;;;;;;31.87;11.17;;;7.60;99.90;;;;;;5073381;28;20252;-74
2021/12/19 08:55:29;;;;;;;33.23;10.93;;;7.80;99.90;;;;;;5072134;28;20679;-73
2021/12/19 08:57:55;;;;;;;28.13;10.90;;;7.90;99.90;;;;;;5072311;28;20184;-73
2021/12/19 09:00:21;;;;;;;28.57;11.13;;;7.90;99.90;;;;;;5072652;28;20216;-74
2021/12/19 09:02:50;;;;;;;30.37;11.17;;;8.00;99.90;;;;;;5073216;28;20180;-74
2021/12/19 09:05:17;;;;;;;21.30;8.87;;;8.00;99.90;;;;;;5073233;28;20176;-74
2021/12/19 09:07:43;;;;;;;19.30;8.10;;;8.00;99.90;;;;;;5073085;28;20196;-74
2021/12/19 09:10:09;;;;;;;17.90;8.70;;;8.10;99.90;;;;;;5071563;28;20529;-73
2021/12/19 09:12:35;;;;;;;21.83;9.57;;;8.00;99.90;;;;;;5072105;28;20168;-74
2021/12/19 09:15:01;;;;;;;18.23;8.77;;;8.00;99.90;;;;;;5071348;28;20180;-74
2021/12/19 09:17:26;;;;;;;18.57;9.00;;;8.00;99.90;;;;;;5072883;28;20173;-74
2021/12/19 09:19:52;;;;;;;21.40;8.67;;;8.00;99.90;;;;;;5071612;28;20235;-74
2021/12/19 09:22:18;;;;;;;17.33;8.33;;;8.20;99.90;;;;;;5073136;28;20230;-74
2021/12/19 09:24:44;;;;;;;14.77;7.87;;;8.20;99.90;;;;;;5072497;28;20231;-74
2021/12/19 09:27:09;;;;;;;14.30;8.37;;;8.10;99.90;;;;;;5071956;28;20176;-74
2021/12/19 09:29:36;;;;;;;14.93;7.47;;;8.10;99.90;;;;;;5072615;28;20214;-74
2021/12/19 09:32:03;;;;;;;15.20;8.00;;;8.10;99.90;;;;;;5071863;28;20701;-74
2021/12/19 09:34:29;;;;;;;14.30;8.13;;;8.20;99.90;;;;;;5072874;28;20633;-74
2021/12/19 09:36:56;;;;;;;13.03;8.17;;;8.30;99.90;;;;;;5072718;28;20252;-73
2021/12/19 09:39:24;;;;;;;13.30;7.80;;;8.40;99.90;;;;;;5072452;28;20730;-75
2021/12/19 09:41:56;;;;;;;15.33;8.17;;;8.40;99.90;;;;;;5072580;28;20168;-73
2021/12/19 09:44:22;;;;;;;15.53;8.50;;;8.50;99.90;;;;;;5072547;28;20180;-73
2021/12/19 09:46:48;;;;;;;13.87;7.67;;;8.60;99.90;;;;;;5071283;28;20532;-74
2021/12/19 09:49:16;;;;;;;13.67;7.87;;;8.70;99.90;;;;;;5071605;28;20176;-74
2021/12/19 09:51:42;;;;;;;13.43;8.00;;;8.70;99.90;;;;;;5072769;28;20537;-74
2021/12/19 09:54:10;;;;;;;11.67;7.40;;;8.80;99.90;;;;;;5072607;28;20624;-74
2021/12/19 09:56:36;;;;;;;13.20;7.53;;;8.80;99.90;;;;;;5071793;28;20169;-74
2021/12/19 09:59:11;;;;;;;13.43;7.60;;;8.90;99.90;;;;;;5072167;28;20192;-74
2021/12/19 10:01:37;;;;;;;14.77;8.50;;;9.10;99.90;;;;;;5072578;28;20172;-74
2021/12/19 10:04:03;;;;;;;11.87;7.97;;;9.10;99.90;;;;;;5072509;28;20169;-74
2021/12/19 10:06:30;;;;;;;10.97;7.43;;;9.20;99.90;;;;;;5071099;28;20184;-74
2021/12/19 10:09:11;;;;;;;12.63;7.70;;;9.20;99.90;;;;;;5071738;28;20624;-74
2021/12/19 10:14:28;;;;;;;10.37;6.43;;;9.20;99.90;;;;;;5072406;28;20165;-74
2021/12/19 10:16:56;;;;;;;10.93;7.00;;;9.10;99.90;;;;;;5072446;28;20241;-75
2021/12/19 10:19:39;;;;;;;8.67;5.43;;;9.20;99.90;;;;;;5072063;28;20199;-73
2021/12/19 10:22:05;;;;;;;8.13;5.63;;;9.00;99.90;;;;;;5072507;28;20176;-74
2021/12/19 10:24:32;;;;;;;6.63;5.00;;;9.00;99.90;;;;;;5075206;28;20226;-74
2021/12/19 10:26:58;;;;;;;6.27;4.67;;;9.00;99.90;;;;;;5075994;28;20255;-75
2021/12/19 10:29:45;;;;;;;5.83;4.43;;;9.10;99.90;;;;;;5076074;28;20255;-74
2021/12/19 10:32:11;;;;;;;5.90;4.53;;;9.10;99.90;;;;;;5076088;28;20233;-74
2021/12/19 10:34:37;;;;;;;9.00;5.07;;;9.10;99.90;;;;;;5075861;28;20302;-75
2021/12/19 10:37:04;;;;;;;6.43;4.97;;;9.10;99.90;;;;;;5076112;28;20247;-75
2021/12/19 10:39:38;;;;;;;7.43;5.37;;;9.20;99.90;;;;;;5075778;28;20259;-74
2021/12/19 10:42:04;;;;;;;6.70;4.83;;;9.20;99.90;;;;;;5075962;28;20210;-75
2021/12/19 10:47:22;;;;;;;5.90;4.10;;;9.20;99.90;;;;;;5075762;28;20655;-74
2021/12/19 10:49:49;;;;;;;4.10;3.20;;;9.10;99.90;;;;;;5075230;28;20176;-74
2021/12/19 10:52:14;;;;;;;5.30;3.87;;;9.20;99.90;;;;;;5075682;28;20335;-74
2021/12/19 10:55:00;;;;;;;5.67;4.43;;;9.20;99.90;;;;;;5075145;28;20188;-75
2021/12/19 10:57:38;;;;;;;5.20;3.97;;;9.20;99.90;;;;;;5075076;28;20176;-75
2021/12/19 11:00:25;;;;;;;5.07;3.90;;;9.20;99.90;;;;;;5074825;28;20266;-75
2021/12/19 11:02:50;;;;;;;5.90;3.87;;;9.30;99.90;;;;;;5075164;28;20521;-73
2021/12/19 11:05:37;;;;;;;4.73;3.17;;;9.30;99.90;;;;;;5074145;28;20184;-75
2021/12/19 11:08:05;;;;;;;4.53;3.80;;;9.30;99.90;;;;;;5074952;28;20175;-74
2021/12/19 11:10:32;;;;;;;4.50;3.70;;;9.30;99.90;;;;;;5074598;28;20199;-74
2021/12/19 11:13:12;;;;;;;6.20;4.40;;;9.40;99.90;;;;;;5075370;28;20177;-74
2021/12/19 11:15:38;;;;;;;4.37;3.30;;;9.50;99.90;;;;;;5075325;28;20179;-75
2021/12/19 11:18:05;;;;;;;3.67;3.33;;;9.60;99.90;;;;;;5074848;28;20195;-75
2021/12/19 11:20:31;;;;;;;5.30;3.13;;;9.60;99.90;;;;;;5074608;28;20204;-74
2021/12/19 11:22:57;;;;;;;6.07;3.97;;;9.80;99.90;;;;;;5075317;28;20172;-75
2021/12/19 11:25:23;;;;;;;4.60;3.23;;;9.90;99.90;;;;;;5074286;28;20228;-74
2021/12/19 11:27:49;;;;;;;5.37;4.03;;;10.00;99.90;;;;;;5075206;28;20696;-75
2021/12/19 11:30:14;;;;;;;6.27;3.93;;;9.90;99.90;;;;;;5074726;28;20268;-74
2021/12/19 11:33:17;;;;;;;4.53;3.67;;;10.00;99.90;;;;;;5073884;28;20567;-75
2021/12/19 11:35:47;;;;;;;5.20;4.30;;;10.00;99.90;;;;;;5073255;28;20200;-75
2021/12/19 11:38:17;;;;;;;4.30;3.90;;;10.00;99.90;;;;;;5074520;28;20164;-73
2021/12/19 11:40:43;;;;;;;5.10;3.77;;;10.00;99.90;;;;;;5074578;28;20259;-75
2021/12/19 11:43:11;;;;;;;5.43;4.03;;;10.00;99.90;;;;;;5074652;28;20204;-74
2021/12/19 11:45:51;;;;;;;5.83;4.67;;;10.10;99.90;;;;;;5074866;28;20176;-74
2021/12/19 11:48:28;;;;;;;7.20;4.60;;;10.10;99.90;;;;;;5074200;28;20520;-75
2021/12/19 11:50:59;;;;;;;7.03;4.33;;;10.20;99.90;;;;;;5074822;28;20176;-74
2021/12/19 11:53:41;;;;;;;5.57;4.37;;;10.10;99.90;;;;;;5074147;28;20199;-75
2021/12/19 11:56:16;;;;;;;6.50;4.60;;;10.10;99.90;;;;;;5074337;28;20164;-75
2021/12/19 11:58:45;;;;;;;4.63;4.13;;;10.10;99.90;;;;;;5074323;28;20218;-75
2021/12/19 12:01:33;;;;;;;5.40;4.43;;;10.20;99.90;;;;;;5073006;28;20204;-75
2021/12/19 12:04:11;;;;;;;7.80;5.17;;;10.10;99.90;;;;;;5074345;28;20171;-75
2021/12/19 12:06:55;;;;;;;6.43;4.43;;;10.00;99.90;;;;;;5073258;28;20176;-75
2021/12/19 12:09:25;;;;;;;5.87;4.80;;;10.00;99.90;;;;;;5073966;28;20246;-73
2021/12/19 12:12:12;;;;;;;8.23;4.83;;;10.10;99.90;;;;;;5073829;28;20179;-74
2021/12/19 12:14:59;;;;;;;6.00;4.70;;;10.10;99.90;;;;;;5074117;28;20659;-75
2021/12/19 12:17:37;;;;;;;6.03;4.97;;;10.00;99.90;;;;;;5074254;28;20169;-74
2021/12/19 12:20:26;;;;;;;7.03;4.90;;;9.90;99.90;;;;;;5073341;28;20200;-74
2021/12/19 12:22:56;;;;;;;6.57;5.00;;;9.90;99.90;;;;;;5073646;28;20251;-74
2021/12/19 12:25:27;;;;;;;5.93;5.10;;;10.00;99.90;;;;;;5073190;28;20220;-74
2021/12/19 12:28:04;;;;;;;9.20;5.70;;;9.90;99.90;;;;;;5072900;28;20172;-75
2021/12/19 12:30:35;;;;;;;10.00;6.17;;;9.90;99.90;;;;;;5073412;28;20176;-74
2021/12/19 12:33:03;;;;;;;6.97;5.20;;;9.70;99.90;;;;;;5073426;28;20643;-75
2021/12/19 12:35:35;;;;;;;7.10;5.13;;;9.70;99.90;;;;;;5073415;28;20292;-75
2021/12/19 12:38:01;;;;;;;5.67;4.77;;;9.60;99.90;;;;;;5073211;28;20181;-74
2021/12/19 12:41:04;;;;;;;8.20;5.27;;;9.50;99.90;;;;;;5072837;28;20239;-75
2021/12/19 12:43:33;;;;;;;6.23;5.00;;;9.50;99.90;;;;;;5073473;28;20173;-74
2021/12/19 12:46:01;;;;;;;5.27;4.77;;;9.40;99.90;;;;;;5073070;28;20187;-75
2021/12/19 12:48:48;;;;;;;8.27;5.80;;;9.30;99.90;;;;;;5072957;28;20252;-76
2021/12/19 12:51:46;;;;;;;6.70;5.10;;;9.40;99.90;;;;;;5073244;28;20173;-74
2021/12/19 12:54:14;;;;;;;8.20;6.30;;;9.40;99.90;;;;;;5069383;28;20203;-76
2021/12/19 12:56:47;;;;;;;10.13;6.27;;;9.40;99.90;;;;;;5072821;28;20172;-75
2021/12/19 12:59:19;;;;;;;8.73;6.63;;;9.40;99.90;;;;;;5073335;28;20181;-75
2021/12/19 13:02:15;;;;;;;7.77;6.43;;;9.40;99.90;;;;;;5072766;28;20200;-74
2021/12/19 13:04:44;;;;;;;8.03;6.13;;;9.40;99.90;;;;;;5072437;28;20233;-75
2021/12/19 13:07:18;;;;;;;7.73;6.40;;;9.40;99.90;;;;;;5072797;28;20277;-74
2021/12/19 13:09:45;;;;;;;9.73;6.53;;;9.40;99.90;;;;;;5072431;28;20165;-74
2021/12/19 13:12:16;;;;;;;7.63;6.00;;;9.40;99.90;;;;;;5071625;28;20172;-74
2021/12/19 13:14:43;;;;;;;8.33;6.70;;;9.30;99.90;;;;;;5073415;28;20183;-75
2021/12/19 13:17:09;;;;;;;7.50;6.40;;;9.30;99.90;;;;;;5072801;28;20243;-74
2021/12/19 13:19:41;;;;;;;8.13;6.73;;;9.20;99.90;;;;;;5072216;28;20282;-74
2021/12/19 13:22:32;;;;;;;6.63;5.90;;;9.20;99.90;;;;;;5072988;28;20168;-74
2021/12/19 13:25:06;;;;;;;6.67;5.90;;;9.30;99.90;;;;;;5070923;28;20224;-74
2021/12/19 13:27:33;;;;;;;7.43;6.60;;;9.30;99.90;;;;;;5072135;28;20173;-74
2021/12/19 13:30:01;;;;;;;9.63;7.20;;;9.40;99.90;;;;;;5072410;28;20179;-74
2021/12/19 13:32:35;;;;;;;8.50;6.87;;;9.30;99.90;;;;;;5071999;28;20173;-75
2021/12/19 13:35:05;;;;;;;10.73;7.27;;;9.40;99.90;;;;;;5072514;28;20172;-75
2021/12/19 13:37:33;;;;;;;10.47;8.20;;;9.50;99.90;;;;;;5072693;28;20628;-74
2021/12/19 13:40:13;;;;;;;8.03;7.33;;;9.60;99.90;;;;;;5071619;28;20493;-74
2021/12/19 13:42:54;;;;;;;10.27;7.97;;;9.60;99.90;;;;;;5072617;28;20222;-75
2021/12/19 13:45:30;;;;;;;8.90;7.40;;;9.60;99.90;;;;;;5072462;28;20176;-75
2021/12/19 13:47:58;;;;;;;7.10;6.40;;;9.60;99.90;;;;;;5072839;28;20271;-76
2021/12/19 13:50:25;;;;;;;7.53;6.23;;;9.60;99.90;;;;;;5071207;28;20161;-74
2021/12/19 13:52:51;;;;;;;6.63;5.93;;;9.70;99.90;;;;;;5072287;28;20181;-75
2021/12/19 13:55:17;;;;;;;6.83;6.23;;;9.70;99.90;;;;;;5072562;28;20176;-75
2021/12/19 13:57:44;;;;;;;6.97;6.27;;;9.70;99.90;;;;;;5070646;28;20161;-75
2021/12/19 14:00:32;;;;;;;7.47;6.53;;;9.80;99.90;;;;;;5072281;28;20216;-75
2021/12/19 14:02:58;;;;;;;6.30;5.70;;;9.70;99.90;;;;;;5070826;28;20176;-75
2021/12/19 14:05:38;;;;;;;6.07;5.37;;;9.60;99.90;;;;;;5071921;28;20184;-75
2021/12/19 14:08:22;;;;;;;5.37;4.87;;;9.70;99.90;;;;;;5072110;28;20181;-75